Time;durP1;ratioP1;P1;durP2;ratioP2;P2;SDS_P1;SDS_P2;PMS_P1;PMS_P2;Temp;Humidity;BMP_temperature;BMP_pressure;BME280_temperature;BME280_humidity;BME280_pressure;Samples;Min_cycle;Max_cycle;Signal;HPM_P1;HPM_P2
2023/05/23 00:01:46;;;;;;;21.27;19.17;;;;;;;;;;5073236;28;20294;-52
2023/05/23 00:04:16;;;;;;;22.47;20.37;;;;;;;;;;5073266;28;20219;-52
2023/05/23 00:06:45;;;;;;;24.60;21.97;;;;;;;;;;5073125;28;20236;-52
2023/05/23 00:09:11;;;;;;;24.57;22.13;;;;;;;;;;5073159;28;20203;-52
2023/05/23 00:11:37;;;;;;;23.13;21.03;;;;;;;;;;5073140;28;20253;-52
2023/05/23 00:14:07;;;;;;;19.87;17.97;;;;;;;;;;5073230;28;20199;-53
2023/05/23 00:16:33;;;;;;;22.13;19.93;;;;;;;;;;5072905;28;20257;-54
2023/05/23 00:19:00;;;;;;;18.30;16.60;;;;;;;;;;5072894;28;20208;-54
2023/05/23 00:21:29;;;;;;;16.37;14.77;;;;;;;;;;5072796;28;20203;-52
2023/05/23 00:23:55;;;;;;;17.20;15.57;;;;;;;;;;5072727;28;20236;-53
2023/05/23 00:26:22;;;;;;;16.70;15.23;;;;;;;;;;5072286;28;20302;-52
2023/05/23 00:28:49;;;;;;;17.07;15.30;;;;;;;;;;5072887;28;20205;-52
2023/05/23 00:31:15;;;;;;;16.17;14.77;;;;;;;;;;5072815;28;20282;-53
2023/05/23 00:33:41;;;;;;;17.83;16.13;;;;;;;;;;5072699;28;20250;-53
2023/05/23 00:36:08;;;;;;;19.27;17.47;;;;;;;;;;5072715;28;20309;-51
2023/05/23 00:38:34;;;;;;;17.70;16.00;;;;;;;;;;5072672;28;20195;-52
2023/05/23 00:41:01;;;;;;;18.17;16.37;;;;;;;;;;5072641;28;20247;-52
2023/05/23 00:43:28;;;;;;;19.90;16.47;;;;;;;;;;5072522;28;20199;-53
2023/05/23 00:45:54;;;;;;;18.20;16.40;;;;;;;;;;5071704;28;20262;-53
2023/05/23 00:48:20;;;;;;;17.37;15.47;;;;;;;;;;5072584;28;20199;-52
2023/05/23 00:50:46;;;;;;;16.97;15.30;;;;;;;;;;5072250;28;20199;-52
2023/05/23 00:53:13;;;;;;;17.13;15.40;;;;;;;;;;5072316;28;20192;-52
2023/05/23 00:55:39;;;;;;;16.33;14.80;;;;;;;;;;5072165;28;20199;-53
2023/05/23 00:58:06;;;;;;;16.13;14.57;;;;;;;;;;5072458;28;20225;-51
2023/05/23 01:00:33;;;;;;;16.00;14.30;;;;;;;;;;5072262;28;20198;-52
2023/05/23 01:03:00;;;;;;;15.17;13.77;;;;;;;;;;5072160;28;20782;-53
2023/05/23 01:05:26;;;;;;;15.00;13.40;;;;;;;;;;5071942;28;20223;-52
2023/05/23 01:07:52;;;;;;;15.37;14.03;;;;;;;;;;5072257;28;20249;-52
2023/05/23 01:10:21;;;;;;;14.67;13.27;;;;;;;;;;5072194;28;20195;-52
2023/05/23 01:12:52;;;;;;;16.23;14.73;;;;;;;;;;5072117;28;20245;-51
2023/05/23 01:15:19;;;;;;;14.87;13.47;;;;;;;;;;5072176;28;20195;-52
2023/05/23 01:17:50;;;;;;;16.77;15.07;;;;;;;;;;5071942;28;20203;-52
2023/05/23 01:20:19;;;;;;;14.37;13.07;;;;;;;;;;5072052;28;20622;-52
2023/05/23 01:23:02;;;;;;;13.67;12.37;;;;;;;;;;5071689;28;20227;-52
2023/05/23 01:25:38;;;;;;;15.23;13.50;;;;;;;;;;5061500;28;20231;-52
2023/05/23 01:28:07;;;;;;;14.03;12.73;;;;;;;;;;5072189;28;20257;-51
2023/05/23 01:30:38;;;;;;;13.57;12.37;;;;;;;;;;5071853;28;20210;-52
2023/05/23 01:33:04;;;;;;;15.07;13.30;;;;;;;;;;5072035;28;20195;-52
2023/05/23 01:35:31;;;;;;;13.90;12.50;;;;;;;;;;5071804;28;20211;-52
2023/05/23 01:37:57;;;;;;;14.87;13.37;;;;;;;;;;5071903;28;20211;-52
2023/05/23 01:40:23;;;;;;;15.97;14.37;;;;;;;;;;5071792;28;20735;-52
2023/05/23 01:42:49;;;;;;;13.80;12.50;;;;;;;;;;5071783;28;20196;-52
2023/05/23 01:45:17;;;;;;;14.77;13.40;;;;;;;;;;5071646;28;20199;-52
2023/05/23 01:47:43;;;;;;;14.80;13.37;;;;;;;;;;5071613;28;20973;-52
2023/05/23 01:50:10;;;;;;;14.70;13.30;;;;;;;;;;5071660;28;20199;-52
2023/05/23 01:52:36;;;;;;;12.87;11.70;;;;;;;;;;5071714;28;20199;-52
2023/05/23 01:55:08;;;;;;;14.50;13.07;;;;;;;;;;5071742;28;20204;-53
2023/05/23 01:57:35;;;;;;;13.43;12.23;;;;;;;;;;5075149;28;20707;-52
2023/05/23 02:00:01;;;;;;;13.50;12.17;;;;;;;;;;5075763;28;20290;-52
2023/05/23 02:02:28;;;;;;;13.93;12.73;;;;;;;;;;5075641;28;20242;-52
2023/05/23 02:04:56;;;;;;;12.93;11.67;;;;;;;;;;5075359;28;20284;-52
2023/05/23 02:07:22;;;;;;;13.47;12.27;;;;;;;;;;5075538;28;20227;-52
2023/05/23 02:09:48;;;;;;;14.30;12.90;;;;;;;;;;5075488;28;20568;-52
2023/05/23 02:12:14;;;;;;;12.67;11.57;;;;;;;;;;5075331;28;20212;-52
2023/05/23 02:14:41;;;;;;;14.37;13.03;;;;;;;;;;5075287;28;20195;-52
2023/05/23 02:17:08;;;;;;;14.13;12.83;;;;;;;;;;5075505;28;20191;-52
2023/05/23 02:19:36;;;;;;;15.53;14.03;;;;;;;;;;5075260;28;20207;-52
2023/05/23 02:22:02;;;;;;;13.70;12.40;;;;;;;;;;5075151;28;20203;-52
2023/05/23 02:24:28;;;;;;;14.13;12.87;;;;;;;;;;5075343;28;20231;-51
2023/05/23 02:26:54;;;;;;;17.03;15.33;;;;;;;;;;5075036;28;20747;-52
2023/05/23 02:29:20;;;;;;;17.47;15.50;;;;;;;;;;5075237;28;20235;-52
2023/05/23 02:31:46;;;;;;;16.17;14.57;;;;;;;;;;5075003;28;20568;-52
2023/05/23 02:34:12;;;;;;;17.07;15.47;;;;;;;;;;5075056;28;20196;-52
2023/05/23 02:36:39;;;;;;;17.43;15.53;;;;;;;;;;5074978;28;20241;-52
2023/05/23 02:39:05;;;;;;;19.80;17.57;;;;;;;;;;5074996;28;20662;-52
2023/05/23 02:41:32;;;;;;;18.70;16.93;;;;;;;;;;5074912;28;20290;-52
2023/05/23 02:43:58;;;;;;;18.47;16.67;;;;;;;;;;5074926;28;20195;-52
2023/05/23 02:46:24;;;;;;;17.07;15.53;;;;;;;;;;5074769;28;20219;-51
2023/05/23 02:48:50;;;;;;;18.93;17.03;;;;;;;;;;5074661;28;20575;-50
2023/05/23 02:51:16;;;;;;;18.93;17.00;;;;;;;;;;5074768;28;20282;-50
2023/05/23 02:53:44;;;;;;;17.50;15.80;;;;;;;;;;5074648;28;20199;-50
2023/05/23 02:56:10;;;;;;;17.03;15.23;;;;;;;;;;5074652;28;20195;-51
2023/05/23 02:58:36;;;;;;;18.03;15.70;;;;;;;;;;5074667;28;20295;-51
2023/05/23 03:01:02;;;;;;;19.83;17.73;;;;;;;;;;5074635;28;20207;-51
2023/05/23 03:03:30;;;;;;;18.90;17.07;;;;;;;;;;5074502;28;20279;-51
2023/05/23 03:05:56;;;;;;;18.10;16.50;;;;;;;;;;5074122;28;20265;-51
2023/05/23 03:08:22;;;;;;;18.70;16.97;;;;;;;;;;5073729;28;20211;-52
2023/05/23 03:10:49;;;;;;;19.10;17.10;;;;;;;;;;5074418;28;20316;-51
2023/05/23 03:13:15;;;;;;;17.33;15.73;;;;;;;;;;5074220;28;20199;-51
2023/05/23 03:15:41;;;;;;;18.20;16.40;;;;;;;;;;5074277;28;20202;-52
2023/05/23 03:18:07;;;;;;;15.80;14.40;;;;;;;;;;5074247;28;20210;-52
2023/05/23 03:20:33;;;;;;;15.50;13.83;;;;;;;;;;5074151;28;20249;-51
2023/05/23 03:22:59;;;;;;;16.47;14.80;;;;;;;;;;5073827;28;20223;-51
2023/05/23 03:25:25;;;;;;;15.97;14.20;;;;;;;;;;5074074;28;20571;-52
2023/05/23 03:27:53;;;;;;;16.30;14.60;;;;;;;;;;5074067;28;20207;-51
2023/05/23 03:30:19;;;;;;;16.17;14.53;;;;;;;;;;5074127;28;20206;-51
2023/05/23 03:32:45;;;;;;;15.57;14.17;;;;;;;;;;5073888;28;20200;-52
2023/05/23 03:35:11;;;;;;;15.13;13.73;;;;;;;;;;5073928;28;20206;-51
2023/05/23 03:37:37;;;;;;;16.00;14.33;;;;;;;;;;5073917;28;20227;-52
2023/05/23 03:40:04;;;;;;;16.97;15.03;;;;;;;;;;5073867;28;20658;-52
2023/05/23 03:42:30;;;;;;;18.50;15.97;;;;;;;;;;5073784;28;20281;-51
2023/05/23 03:44:57;;;;;;;17.03;15.27;;;;;;;;;;5073611;28;20200;-51
2023/05/23 03:47:23;;;;;;;16.03;14.50;;;;;;;;;;5073574;28;20716;-52
2023/05/23 03:49:50;;;;;;;14.90;13.40;;;;;;;;;;5073484;28;20195;-52
2023/05/23 03:52:16;;;;;;;16.20;14.60;;;;;;;;;;5072592;28;20215;-52
2023/05/23 03:54:41;;;;;;;16.40;14.17;;;;;;;;;;5073293;28;20199;-52
2023/05/23 03:57:07;;;;;;;18.23;13.97;;;;;;;;;;5073621;28;20192;-52
2023/05/23 03:59:34;;;;;;;14.97;13.30;;;;;;;;;;5073279;28;20196;-52
2023/05/23 04:02:01;;;;;;;18.83;14.83;;;;;;;;;;5073143;28;20200;-51
2023/05/23 04:04:27;;;;;;;17.93;14.73;;;;;;;;;;5073158;28;20731;-51
2023/05/23 04:06:53;;;;;;;17.47;15.67;;;;;;;;;;5073176;28;20227;-51
2023/05/23 04:09:19;;;;;;;16.20;14.60;;;;;;;;;;5072061;28;20504;-51
2023/05/23 04:11:46;;;;;;;18.47;14.23;;;;;;;;;;5073149;28;20257;-51
2023/05/23 04:14:12;;;;;;;16.67;14.47;;;;;;;;;;5073062;28;20915;-51
2023/05/23 04:16:40;;;;;;;16.77;13.27;;;;;;;;;;5073142;28;20277;-52
2023/05/23 04:19:07;;;;;;;14.27;12.77;;;;;;;;;;5073012;28;20534;-52
2023/05/23 04:21:33;;;;;;;19.73;13.63;;;;;;;;;;5073037;28;20210;-51
2023/05/23 04:24:00;;;;;;;15.87;14.27;;;;;;;;;;5072691;28;20243;-51
2023/05/23 04:26:26;;;;;;;16.13;14.53;;;;;;;;;;5072851;28;20306;-51
2023/05/23 04:28:53;;;;;;;15.27;13.67;;;;;;;;;;5072824;28;20199;-51
2023/05/23 04:31:19;;;;;;;15.93;14.30;;;;;;;;;;5072941;28;20200;-51
2023/05/23 04:33:45;;;;;;;17.30;14.63;;;;;;;;;;5072744;28;20195;-50
2023/05/23 04:36:12;;;;;;;16.67;15.00;;;;;;;;;;5072547;28;20721;-50
2023/05/23 04:38:39;;;;;;;17.50;15.80;;;;;;;;;;5072695;28;20203;-50
2023/05/23 04:41:06;;;;;;;17.53;15.70;;;;;;;;;;5072601;28;20203;-51
2023/05/23 04:43:32;;;;;;;18.57;16.43;;;;;;;;;;5072567;28;20253;-50
2023/05/23 04:45:58;;;;;;;16.77;15.23;;;;;;;;;;5072299;28;20251;-51
2023/05/23 04:48:26;;;;;;;18.50;16.57;;;;;;;;;;5072452;28;20665;-50
2023/05/23 04:50:52;;;;;;;18.40;16.50;;;;;;;;;;5072406;28;20290;-51
2023/05/23 04:53:19;;;;;;;19.10;17.07;;;;;;;;;;5072539;28;20223;-51
2023/05/23 04:55:45;;;;;;;24.03;18.63;;;;;;;;;;5072336;28;20203;-51
2023/05/23 04:58:11;;;;;;;21.83;18.60;;;;;;;;;;5072398;28;20207;-50
2023/05/23 05:00:37;;;;;;;21.53;17.97;;;;;;;;;;5072342;28;20226;-51
2023/05/23 05:03:03;;;;;;;22.17;19.77;;;;;;;;;;5072470;28;20204;-50
2023/05/23 05:05:29;;;;;;;20.83;18.07;;;;;;;;;;5072045;28;20220;-50
2023/05/23 05:07:55;;;;;;;25.97;20.40;;;;;;;;;;5072084;28;20196;-50
2023/05/23 05:10:23;;;;;;;23.57;19.87;;;;;;;;;;5072286;28;20431;-51
2023/05/23 05:12:49;;;;;;;20.70;18.40;;;;;;;;;;5072047;28;20658;-50
2023/05/23 05:15:16;;;;;;;21.27;18.97;;;;;;;;;;5072078;28;20680;-50
2023/05/23 05:17:42;;;;;;;22.33;19.77;;;;;;;;;;5071418;28;20278;-50
2023/05/23 05:20:09;;;;;;;25.03;19.93;;;;;;;;;;5071991;28;20227;-50
2023/05/23 05:22:35;;;;;;;19.73;17.63;;;;;;;;;;5071651;28;20231;-50
2023/05/23 05:25:02;;;;;;;23.07;17.43;;;;;;;;;;5071818;28;20276;-49
2023/05/23 05:27:29;;;;;;;18.97;16.93;;;;;;;;;;5071937;28;20219;-50
2023/05/23 05:30:03;;;;;;;21.10;17.57;;;;;;;;;;5071765;28;20222;-51
2023/05/23 05:32:32;;;;;;;19.67;16.67;;;;;;;;;;5071503;28;20203;-51
2023/05/23 05:34:59;;;;;;;19.63;16.13;;;;;;;;;;5071492;28;20203;-51
2023/05/23 05:37:25;;;;;;;17.90;15.43;;;;;;;;;;5071731;28;20200;-52
2023/05/23 05:39:53;;;;;;;17.83;14.73;;;;;;;;;;5071773;28;20203;-51
2023/05/23 05:42:19;;;;;;;14.13;12.70;;;;;;;;;;5071978;28;20199;-51
2023/05/23 05:44:46;;;;;;;15.83;13.03;;;;;;;;;;5067549;28;20206;-52
2023/05/23 05:47:12;;;;;;;13.20;11.30;;;;;;;;;;5071550;28;20223;-52
2023/05/23 05:49:38;;;;;;;13.20;10.67;;;;;;;;;;5071718;28;20237;-52
2023/05/23 05:52:05;;;;;;;13.20;10.33;;;;;;;;;;5071566;28;20633;-52
2023/05/23 05:54:31;;;;;;;12.67;11.37;;;;;;;;;;5071676;28;20184;-52
2023/05/23 05:56:57;;;;;;;13.47;10.13;;;;;;;;;;5071570;28;20202;-51
2023/05/23 05:59:23;;;;;;;12.40;10.80;;;;;;;;;;5071657;28;20681;-51
2023/05/23 06:01:51;;;;;;;10.57;9.13;;;;;;;;;;5065879;28;20219;-52
2023/05/23 06:04:17;;;;;;;10.37;9.27;;;;;;;;;;5071391;28;20277;-52
2023/05/23 06:06:43;;;;;;;10.50;9.23;;;;;;;;;;5071593;28;20223;-51
2023/05/23 06:09:09;;;;;;;10.80;8.27;;;;;;;;;;5071405;28;20242;-51
2023/05/23 06:11:39;;;;;;;8.07;7.33;;;;;;;;;;5071513;28;20658;-52
2023/05/23 06:14:05;;;;;;;8.70;7.80;;;;;;;;;;5071515;28;20200;-51
2023/05/23 06:16:31;;;;;;;7.20;6.60;;;;;;;;;;5071337;28;20253;-51
2023/05/23 06:18:58;;;;;;;7.43;6.50;;;;;;;;;;5071244;28;20222;-51
2023/05/23 06:21:24;;;;;;;7.50;6.80;;;;;;;;;;5071368;28;20268;-51
2023/05/23 06:23:51;;;;;;;7.40;6.70;;;;;;;;;;5071355;28;20243;-50
2023/05/23 06:26:17;;;;;;;7.40;6.80;;;;;;;;;;5071422;28;20266;-51
2023/05/23 06:28:43;;;;;;;7.63;6.80;;;;;;;;;;5071371;28;20401;-51
2023/05/23 06:31:09;;;;;;;8.67;6.73;;;;;;;;;;5071141;28;20262;-51
2023/05/23 06:33:35;;;;;;;7.37;6.63;;;;;;;;;;5071434;28;20232;-51
2023/05/23 06:36:02;;;;;;;6.97;6.37;;;;;;;;;;5071189;28;20198;-51
2023/05/23 06:38:29;;;;;;;9.03;6.20;;;;;;;;;;5071326;28;20203;-52
2023/05/23 06:40:55;;;;;;;11.50;7.00;;;;;;;;;;5071190;28;20207;-52
2023/05/23 06:43:21;;;;;;;7.27;6.67;;;;;;;;;;5072566;28;20268;-51
2023/05/23 06:45:47;;;;;;;7.43;6.07;;;;;;;;;;5074657;28;20195;-52
2023/05/23 06:48:13;;;;;;;6.87;6.27;;;;;;;;;;5074600;28;20205;-52
2023/05/23 06:50:40;;;;;;;6.40;5.67;;;;;;;;;;5074707;28;20271;-53
2023/05/23 06:53:07;;;;;;;7.97;6.73;;;;;;;;;;5074495;28;20200;-52
2023/05/23 06:55:33;;;;;;;7.70;6.37;;;;;;;;;;5074509;28;20210;-51
2023/05/23 06:57:59;;;;;;;9.53;7.27;;;;;;;;;;5074414;28;20405;-52
2023/05/23 07:00:25;;;;;;;9.40;7.17;;;;;;;;;;5074492;28;20209;-52
2023/05/23 07:02:51;;;;;;;11.17;8.53;;;;;;;;;;5074621;28;20199;-51
2023/05/23 07:05:17;;;;;;;10.43;8.33;;;;;;;;;;5074286;28;20559;-52
2023/05/23 07:07:43;;;;;;;8.50;7.67;;;;;;;;;;5074436;28;20227;-52
2023/05/23 07:10:11;;;;;;;9.90;8.33;;;;;;;;;;5074331;28;20203;-52
2023/05/23 07:12:37;;;;;;;12.93;9.55;;;;;;;;;;5073209;28;20404;-52
2023/05/23 07:15:03;;;;;;;11.60;8.30;;;;;;;;;;5074270;28;20665;-51
2023/05/23 07:17:29;;;;;;;11.40;8.63;;;;;;;;;;5074302;28;20191;-51
2023/05/23 07:19:55;;;;;;;13.97;8.37;;;;;;;;;;5071128;28;20199;-51
2023/05/23 07:22:21;;;;;;;10.50;8.50;;;;;;;;;;5074065;28;20231;-52
2023/05/23 07:24:47;;;;;;;14.33;7.97;;;;;;;;;;5074246;28;20206;-52
2023/05/23 07:27:15;;;;;;;12.47;7.90;;;;;;;;;;5073844;28;20708;-51
2023/05/23 07:29:41;;;;;;;10.10;7.90;;;;;;;;;;5074022;28;20257;-53
2023/05/23 07:32:07;;;;;;;10.83;8.50;;;;;;;;;;5073894;28;20202;-52
2023/05/23 07:34:33;;;;;;;13.40;8.93;;;;;;;;;;5073979;28;20306;-52
2023/05/23 07:36:59;;;;;;;12.50;9.00;;;;;;;;;;5073904;28;20214;-52
2023/05/23 07:39:26;;;;;;;14.70;8.23;;;;;;;;;;5073721;28;20200;-51
2023/05/23 07:41:52;;;;;;;18.20;8.27;;;;;;;;;;5073839;28;20728;-52
2023/05/23 07:44:20;;;;;;;11.20;7.43;;;;;;;;;;5073747;28;20297;-51
2023/05/23 07:46:46;;;;;;;12.93;7.53;;;;;;;;;;5073518;28;20667;-50
2023/05/23 07:49:12;;;;;;;11.30;7.57;;;;;;;;;;5073464;28;20283;-50
2023/05/23 07:51:38;;;;;;;10.93;7.17;;;;;;;;;;5073588;28;20196;-50
2023/05/23 07:54:04;;;;;;;10.30;6.50;;;;;;;;;;5073293;28;20191;-50
2023/05/23 07:56:30;;;;;;;15.27;6.83;;;;;;;;;;5073402;28;20605;-50
2023/05/23 07:58:56;;;;;;;8.20;6.23;;;;;;;;;;5073449;28;20234;-50
2023/05/23 08:01:24;;;;;;;12.43;6.30;;;;;;;;;;5073448;28;20226;-50
2023/05/23 08:03:50;;;;;;;13.07;6.50;;;;;;;;;;5073333;28;20219;-50
2023/05/23 08:06:16;;;;;;;11.97;5.93;;;;;;;;;;5073165;28;20220;-49
2023/05/23 08:08:42;;;;;;;13.37;5.83;;;;;;;;;;5073331;28;20199;-51
2023/05/23 08:11:08;;;;;;;13.20;5.70;;;;;;;;;;5073084;28;20723;-51
2023/05/23 08:13:34;;;;;;;10.07;6.40;;;;;;;;;;5073373;28;20204;-52
2023/05/23 08:16:00;;;;;;;12.30;7.20;;;;;;;;;;5073161;28;20287;-49
2023/05/23 08:18:29;;;;;;;13.13;7.73;;;;;;;;;;5073032;28;20271;-51
2023/05/23 08:20:55;;;;;;;16.27;8.95;;;;;;;;;;5071822;28;20404;-52
2023/05/23 08:23:21;;;;;;;12.80;8.20;;;;;;;;;;5071595;28;20817;-51
2023/05/23 08:25:47;;;;;;;14.15;8.30;;;;;;;;;;5071776;28;20442;-50
2023/05/23 08:28:13;;;;;;;13.18;6.70;;;;;;;;;;5071556;28;20412;-52
2023/05/23 08:30:39;;;;;;;10.07;5.83;;;;;;;;;;5061468;28;20197;-52
2023/05/23 08:33:05;;;;;;;8.93;4.43;;;;;;;;;;5052794;28;20210;-52
2023/05/23 08:35:35;;;;;;;7.40;4.60;;;;;;;;;;5052528;28;20732;-52
2023/05/23 08:38:01;;;;;;;10.10;4.90;;;;;;;;;;5052373;28;20204;-53
2023/05/23 08:40:31;;;;;;;7.60;4.57;;;;;;;;;;5052515;28;20196;-52
2023/05/23 08:42:57;;;;;;;9.50;4.27;;;;;;;;;;5052294;28;20803;-53
2023/05/23 08:45:23;;;;;;;8.13;3.80;;;;;;;;;;5052390;28;20918;-53
2023/05/23 08:47:51;;;;;;;5.37;3.30;;;;;;;;;;5052312;28;20224;-54
2023/05/23 08:50:17;;;;;;;6.53;3.40;;;;;;;;;;5052248;28;20231;-52
2023/05/23 08:52:49;;;;;;;7.05;4.20;;;;;;;;;;5050892;28;20413;-52
2023/05/23 08:55:17;;;;;;;9.32;4.15;;;;;;;;;;5050986;28;20448;-52
2023/05/23 08:57:44;;;;;;;12.83;4.80;;;;;;;;;;5052375;28;20206;-52
2023/05/23 09:00:13;;;;;;;7.97;4.57;;;;;;;;;;5052264;28;20573;-52
2023/05/23 09:02:40;;;;;;;4.57;3.90;;;;;;;;;;5052250;28;20200;-53
2023/05/23 09:05:09;;;;;;;6.90;3.97;;;;;;;;;;5051933;28;20219;-53
2023/05/23 09:07:35;;;;;;;6.80;4.03;;;;;;;;;;5051979;28;20232;-54
2023/05/23 09:10:04;;;;;;;5.75;4.25;;;;;;;;;;5050961;28;20500;-54
2023/05/23 09:12:32;;;;;;;4.30;3.57;;;;;;;;;;5052151;28;20208;-54
2023/05/23 09:14:58;;;;;;;4.43;3.47;;;;;;;;;;5052065;28;20196;-52
2023/05/23 09:17:24;;;;;;;7.83;3.30;;;;;;;;;;5051832;28;20249;-53
2023/05/23 09:19:50;;;;;;;3.83;2.97;;;;;;;;;;5052069;28;20196;-54
2023/05/23 09:22:16;;;;;;;4.00;3.50;;;;;;;;;;5051667;28;20248;-53
2023/05/23 09:24:43;;;;;;;5.37;3.20;;;;;;;;;;5052052;28;20200;-54
2023/05/23 09:27:11;;;;;;;8.77;3.00;;;;;;;;;;5051746;28;20228;-54
2023/05/23 09:29:40;;;;;;;6.07;3.60;;;;;;;;;;5052069;28;20208;-53
2023/05/23 09:32:13;;;;;;;9.00;4.00;;;;;;;;;;5051948;28;20203;-53
2023/05/23 09:34:42;;;;;;;12.77;5.10;;;;;;;;;;5051829;28;20257;-54
2023/05/23 09:37:12;;;;;;;10.17;5.63;;;;;;;;;;5051593;28;20227;-54
2023/05/23 09:39:38;;;;;;;10.07;5.30;;;;;;;;;;5059743;28;20249;-53
2023/05/23 09:42:04;;;;;;;9.87;5.10;;;;;;;;;;5071570;28;20207;-53
2023/05/23 09:44:32;;;;;;;9.60;5.20;;;;;;;;;;5071674;28;20196;-53
2023/05/23 09:46:58;;;;;;;9.83;5.00;;;;;;;;;;5071552;28;20227;-52
2023/05/23 09:49:26;;;;;;;12.20;5.77;;;;;;;;;;5071619;28;20199;-54
2023/05/23 09:51:58;;;;;;;10.40;5.70;;;;;;;;;;5071784;28;20203;-52
2023/05/23 09:54:24;;;;;;;14.00;6.50;;;;;;;;;;5071350;28;20560;-53
2023/05/23 09:56:52;;;;;;;15.53;6.00;;;;;;;;;;5071891;28;20575;-52
2023/05/23 09:59:23;;;;;;;7.03;4.90;;;;;;;;;;5071595;28;20203;-53
2023/05/23 10:01:51;;;;;;;13.97;5.70;;;;;;;;;;5071531;28;20207;-52
2023/05/23 10:04:19;;;;;;;10.30;4.90;;;;;;;;;;5071433;28;20223;-53
2023/05/23 10:06:51;;;;;;;14.70;5.27;;;;;;;;;;5071428;28;20219;-53
2023/05/23 10:09:19;;;;;;;11.60;4.67;;;;;;;;;;5071509;28;20196;-53
2023/05/23 10:12:11;;;;;;;8.37;4.60;;;;;;;;;;5071553;28;20203;-53
2023/05/23 10:14:40;;;;;;;8.47;4.37;;;;;;;;;;5071535;28;20200;-53
2023/05/23 10:17:10;;;;;;;7.90;3.97;;;;;;;;;;5072423;28;20278;-53
2023/05/23 10:19:40;;;;;;;10.93;5.40;;;;;;;;;;5075469;28;20199;-53
2023/05/23 10:22:08;;;;;;;10.13;4.70;;;;;;;;;;5075141;28;20204;-53
2023/05/23 10:24:35;;;;;;;9.23;4.63;;;;;;;;;;5075269;28;20211;-53
2023/05/23 10:27:02;;;;;;;10.20;4.97;;;;;;;;;;5075125;28;20219;-54
2023/05/23 10:29:28;;;;;;;9.53;5.20;;;;;;;;;;5075014;28;20287;-54
2023/05/23 10:31:55;;;;;;;10.83;5.87;;;;;;;;;;5075065;28;20200;-54
2023/05/23 10:34:28;;;;;;;11.07;5.60;;;;;;;;;;5074994;28;20195;-54
2023/05/23 10:37:00;;;;;;;12.53;4.67;;;;;;;;;;5074996;28;20203;-54
2023/05/23 10:39:31;;;;;;;7.23;4.27;;;;;;;;;;5074844;28;20200;-54
2023/05/23 10:42:00;;;;;;;13.37;4.97;;;;;;;;;;5074912;28;20242;-54
2023/05/23 10:44:28;;;;;;;10.97;4.77;;;;;;;;;;5074721;28;20198;-54
2023/05/23 10:46:56;;;;;;;13.37;4.27;;;;;;;;;;5074866;28;20235;-54
2023/05/23 10:49:36;;;;;;;10.83;5.00;;;;;;;;;;5074762;28;20227;-54
2023/05/23 10:52:06;;;;;;;10.50;4.53;;;;;;;;;;5074832;28;20195;-55
2023/05/23 10:54:34;;;;;;;11.90;5.00;;;;;;;;;;5074557;28;20713;-55
2023/05/23 10:57:03;;;;;;;12.67;4.80;;;;;;;;;;5074660;28;20658;-54
2023/05/23 10:59:29;;;;;;;12.33;5.17;;;;;;;;;;5074504;28;20345;-54
2023/05/23 11:01:55;;;;;;;13.10;5.03;;;;;;;;;;5074495;28;20191;-55
2023/05/23 11:04:25;;;;;;;9.80;5.23;;;;;;;;;;5074347;28;20759;-54
2023/05/23 11:06:53;;;;;;;10.33;5.07;;;;;;;;;;5074470;28;20235;-54
2023/05/23 11:09:21;;;;;;;15.10;5.07;;;;;;;;;;5074341;28;20241;-54
2023/05/23 11:11:59;;;;;;;11.10;4.60;;;;;;;;;;5074496;28;20196;-55
2023/05/23 11:14:33;;;;;;;11.57;5.05;;;;;;;;;;5073033;28;20403;-55
2023/05/23 11:16:59;;;;;;;9.80;4.07;;;;;;;;;;5074284;28;20196;-54
2023/05/23 11:19:29;;;;;;;9.10;3.70;;;;;;;;;;5074073;28;20192;-54
2023/05/23 11:21:57;;;;;;;9.83;3.70;;;;;;;;;;5074161;28;20196;-54
2023/05/23 11:24:44;;;;;;;11.93;4.45;;;;;;;;;;5062292;28;20402;-54
2023/05/23 11:27:12;;;;;;;12.20;3.70;;;;;;;;;;5053924;28;20224;-55
2023/05/23 11:29:38;;;;;;;12.90;3.93;;;;;;;;;;5053205;28;20212;-54
2023/05/23 11:32:11;;;;;;;10.67;3.97;;;;;;;;;;5055712;28;20215;-55
2023/05/23 11:34:37;;;;;;;8.30;3.53;;;;;;;;;;5062397;28;20200;-54
2023/05/23 11:37:04;;;;;;;13.37;4.10;;;;;;;;;;5055980;28;20659;-55
2023/05/23 11:39:30;;;;;;;12.47;3.90;;;;;;;;;;5053807;28;20207;-54
2023/05/23 11:41:59;;;;;;;16.40;4.73;;;;;;;;;;5051341;28;20204;-55
2023/05/23 11:44:27;;;;;;;10.93;3.30;;;;;;;;;;5070968;28;20207;-54
2023/05/23 11:47:00;;;;;;;10.38;4.47;;;;;;;;;;5072454;28;20412;-53
2023/05/23 11:49:27;;;;;;;10.50;4.47;;;;;;;;;;5071955;28;20461;-54
2023/05/23 11:51:53;;;;;;;9.73;4.30;;;;;;;;;;5073363;28;20214;-54
2023/05/23 11:54:21;;;;;;;9.63;4.93;;;;;;;;;;5073319;28;20195;-54
2023/05/23 11:56:47;;;;;;;7.10;3.53;;;;;;;;;;5073419;28;20282;-54
2023/05/23 11:59:14;;;;;;;11.20;4.00;;;;;;;;;;5073319;28;20223;-54
2023/05/23 12:01:43;;;;;;;12.70;5.03;;;;;;;;;;5072946;28;20618;-55
2023/05/23 12:04:10;;;;;;;11.53;3.97;;;;;;;;;;5071951;28;20422;-54
2023/05/23 12:06:38;;;;;;;9.43;3.87;;;;;;;;;;5072958;28;20234;-54
2023/05/23 12:09:05;;;;;;;11.27;3.37;;;;;;;;;;5073183;28;20219;-54
2023/05/23 12:11:31;;;;;;;9.63;3.73;;;;;;;;;;5072838;28;20202;-54
2023/05/23 12:13:58;;;;;;;12.40;4.43;;;;;;;;;;5071461;28;20878;-51
2023/05/23 12:16:24;;;;;;;9.20;4.03;;;;;;;;;;5071434;28;20491;-55
2023/05/23 12:18:52;;;;;;;10.83;4.17;;;;;;;;;;5072828;28;20200;-51
2023/05/23 12:21:18;;;;;;;8.87;3.57;;;;;;;;;;5072817;28;20238;-55
2023/05/23 12:23:44;;;;;;;9.97;3.57;;;;;;;;;;5071919;28;20731;-55
2023/05/23 12:26:10;;;;;;;10.17;3.90;;;;;;;;;;5068615;28;20215;-53
2023/05/23 12:28:37;;;;;;;10.67;3.80;;;;;;;;;;5072851;28;20200;-54
2023/05/23 12:31:09;;;;;;;8.70;3.97;;;;;;;;;;5072818;28;20196;-55
2023/05/23 12:33:38;;;;;;;10.70;4.03;;;;;;;;;;5072542;28;20286;-55
2023/05/23 12:36:06;;;;;;;9.23;4.67;;;;;;;;;;5072848;28;20249;-55
2023/05/23 12:38:36;;;;;;;13.57;5.10;;;;;;;;;;5072642;28;20208;-55
2023/05/23 12:41:09;;;;;;;13.43;5.70;;;;;;;;;;5071684;28;20662;-55
2023/05/23 12:43:37;;;;;;;13.53;6.07;;;;;;;;;;5072496;28;20203;-55
2023/05/23 12:46:03;;;;;;;8.90;4.70;;;;;;;;;;5072452;28;20225;-53
2023/05/23 12:48:29;;;;;;;11.07;4.40;;;;;;;;;;5072093;28;20227;-55
2023/05/23 12:50:55;;;;;;;11.20;4.93;;;;;;;;;;5070330;28;20290;-53
2023/05/23 12:53:22;;;;;;;10.80;4.50;;;;;;;;;;5072051;28;20195;-54
2023/05/23 12:55:48;;;;;;;10.87;4.50;;;;;;;;;;5071648;28;20210;-54
2023/05/23 12:58:14;;;;;;;13.17;4.20;;;;;;;;;;5071829;28;20191;-54
2023/05/23 13:00:40;;;;;;;12.70;3.73;;;;;;;;;;5071724;28;20662;-54
2023/05/23 13:03:06;;;;;;;12.97;3.40;;;;;;;;;;5071752;28;20199;-53
2023/05/23 13:05:32;;;;;;;10.17;4.10;;;;;;;;;;5071473;28;20257;-54
2023/05/23 13:07:59;;;;;;;12.13;3.90;;;;;;;;;;5071584;28;20236;-54
2023/05/23 13:10:26;;;;;;;10.23;3.83;;;;;;;;;;5071592;28;20205;-54
2023/05/23 13:12:52;;;;;;;9.40;4.07;;;;;;;;;;5071592;28;20558;-54
2023/05/23 13:15:18;;;;;;;11.43;3.47;;;;;;;;;;5071605;28;20203;-54
2023/05/23 13:17:45;;;;;;;10.90;3.50;;;;;;;;;;5071263;28;20229;-55
2023/05/23 13:20:13;;;;;;;9.87;3.57;;;;;;;;;;5071553;28;20250;-55
2023/05/23 13:22:39;;;;;;;10.70;3.67;;;;;;;;;;5071164;28;20244;-54
2023/05/23 13:25:07;;;;;;;10.87;4.13;;;;;;;;;;5071656;28;20242;-54
2023/05/23 13:27:34;;;;;;;9.50;3.70;;;;;;;;;;5071359;28;20322;-54
2023/05/23 13:30:00;;;;;;;6.20;3.40;;;;;;;;;;5071459;28;20205;-54
2023/05/23 13:32:26;;;;;;;6.37;3.30;;;;;;;;;;5071170;28;20290;-54
2023/05/23 13:34:52;;;;;;;7.67;2.77;;;;;;;;;;5071322;28;20208;-54
2023/05/23 13:37:18;;;;;;;9.30;3.27;;;;;;;;;;5071273;28;20202;-54
2023/05/23 13:39:44;;;;;;;6.87;3.03;;;;;;;;;;5071213;28;20203;-54
2023/05/23 13:42:10;;;;;;;13.10;3.43;;;;;;;;;;5071350;28;20626;-54
2023/05/23 13:44:38;;;;;;;8.07;3.43;;;;;;;;;;5071319;28;20220;-55
2023/05/23 13:47:10;;;;;;;9.20;3.90;;;;;;;;;;5071311;28;20232;-54
2023/05/23 13:49:36;;;;;;;6.00;3.50;;;;;;;;;;5071616;28;20607;-54
2023/05/23 13:52:02;;;;;;;9.30;3.10;;;;;;;;;;5072160;28;20737;-54
2023/05/23 13:54:28;;;;;;;7.50;3.23;;;;;;;;;;5075341;28;20212;-54
2023/05/23 13:56:54;;;;;;;13.13;4.50;;;;;;;;;;5075149;28;20605;-54
2023/05/23 13:59:21;;;;;;;9.00;3.33;;;;;;;;;;5075392;28;20196;-54
2023/05/23 14:01:48;;;;;;;7.60;3.27;;;;;;;;;;5075088;28;20235;-55
2023/05/23 14:04:14;;;;;;;10.00;3.47;;;;;;;;;;5075023;28;20709;-55
2023/05/23 14:06:40;;;;;;;6.93;3.40;;;;;;;;;;5074918;28;20226;-55
2023/05/23 14:09:06;;;;;;;11.40;4.07;;;;;;;;;;5075179;28;20286;-55
2023/05/23 14:11:32;;;;;;;7.10;3.50;;;;;;;;;;5074928;28;20284;-55
2023/05/23 14:13:58;;;;;;;7.73;3.50;;;;;;;;;;5074982;28;20270;-54
2023/05/23 14:16:24;;;;;;;6.97;3.33;;;;;;;;;;5074835;28;20567;-55
2023/05/23 14:18:52;;;;;;;8.53;3.70;;;;;;;;;;5074829;28;20200;-55
2023/05/23 14:21:18;;;;;;;8.73;3.33;;;;;;;;;;5074957;28;20210;-55
2023/05/23 14:23:44;;;;;;;7.53;3.00;;;;;;;;;;5074455;28;20239;-55
2023/05/23 14:26:10;;;;;;;9.23;3.00;;;;;;;;;;5074783;28;20205;-55
2023/05/23 14:28:36;;;;;;;6.83;2.70;;;;;;;;;;5074747;28;20266;-55